sensor_id;sensor_type;location;lat;lon;timestamp;temperature;humidity
7206;DHT22;3644;53.480;10.004;2022-07-06T00:01:41;17.20;99.90
7206;DHT22;3644;53.480;10.004;2022-07-06T00:04:07;17.10;99.90
7206;DHT22;3644;53.480;10.004;2022-07-06T00:06:32;17.20;99.90
7206;DHT22;3644;53.480;10.004;2022-07-06T00:08:58;17.20;99.90
7206;DHT22;3644;53.480;10.004;2022-07-06T00:11:24;17.30;99.90
7206;DHT22;3644;53.480;10.004;2022-07-06T00:13:50;17.20;99.90
7206;DHT22;3644;53.480;10.004;2022-07-06T00:16:17;17.20;99.90
7206;DHT22;3644;53.480;10.004;2022-07-06T00:18:42;17.30;99.90
7206;DHT22;3644;53.480;10.004;2022-07-06T00:21:08;17.10;99.90
7206;DHT22;3644;53.480;10.004;2022-07-06T00:23:33;17.20;99.90
7206;DHT22;3644;53.480;10.004;2022-07-06T00:25:59;17.20;99.90
7206;DHT22;3644;53.480;10.004;2022-07-06T00:28:24;17.00;99.90
7206;DHT22;3644;53.480;10.004;2022-07-06T00:30:50;16.90;99.90
7206;DHT22;3644;53.480;10.004;2022-07-06T00:33:16;16.80;99.90
7206;DHT22;3644;53.480;10.004;2022-07-06T00:35:41;16.80;99.90
7206;DHT22;3644;53.480;10.004;2022-07-06T00:38:07;16.90;99.90
7206;DHT22;3644;53.480;10.004;2022-07-06T00:40:33;16.80;99.90
7206;DHT22;3644;53.480;10.004;2022-07-06T00:42:58;16.90;99.90
7206;DHT22;3644;53.480;10.004;2022-07-06T00:45:24;16.70;99.90
7206;DHT22;3644;53.480;10.004;2022-07-06T00:47:50;16.70;99.90
7206;DHT22;3644;53.480;10.004;2022-07-06T00:50:17;16.80;99.90
7206;DHT22;3644;53.480;10.004;2022-07-06T00:55:14;16.70;99.90
7206;DHT22;3644;53.480;10.004;2022-07-06T00:57:40;16.80;99.90
7206;DHT22;3644;53.480;10.004;2022-07-06T01:00:11;16.80;99.90
7206;DHT22;3644;53.480;10.004;2022-07-06T01:02:37;16.80;99.90
7206;DHT22;3644;53.480;10.004;2022-07-06T01:05:04;16.70;99.90
7206;DHT22;3644;53.480;10.004;2022-07-06T01:07:30;16.70;99.90
7206;DHT22;3644;53.480;10.004;2022-07-06T01:09:56;16.70;99.90
7206;DHT22;3644;53.480;10.004;2022-07-06T01:12:21;16.90;99.90
7206;DHT22;3644;53.480;10.004;2022-07-06T01:14:48;16.90;99.90
7206;DHT22;3644;53.480;10.004;2022-07-06T01:17:14;16.80;99.90
7206;DHT22;3644;53.480;10.004;2022-07-06T01:19:40;16.90;99.90
7206;DHT22;3644;53.480;10.004;2022-07-06T01:22:06;17.00;99.90
7206;DHT22;3644;53.480;10.004;2022-07-06T01:24:31;16.90;99.90
7206;DHT22;3644;53.480;10.004;2022-07-06T01:26:59;16.80;99.90
7206;DHT22;3644;53.480;10.004;2022-07-06T01:29:25;16.90;99.90
7206;DHT22;3644;53.480;10.004;2022-07-06T01:31:51;17.00;99.90
7206;DHT22;3644;53.480;10.004;2022-07-06T01:34:17;17.00;99.90
7206;DHT22;3644;53.480;10.004;2022-07-06T01:36:43;16.90;99.90
7206;DHT22;3644;53.480;10.004;2022-07-06T01:39:10;16.80;99.90
7206;DHT22;3644;53.480;10.004;2022-07-06T01:41:35;16.80;99.90
7206;DHT22;3644;53.480;10.004;2022-07-06T01:44:02;16.70;99.90
7206;DHT22;3644;53.480;10.004;2022-07-06T01:46:27;16.60;99.90
7206;DHT22;3644;53.480;10.004;2022-07-06T01:48:53;16.60;99.90
7206;DHT22;3644;53.480;10.004;2022-07-06T01:51:18;16.60;99.90
7206;DHT22;3644;53.480;10.004;2022-07-06T01:53:45;16.70;99.90
7206;DHT22;3644;53.480;10.004;2022-07-06T01:56:11;16.50;99.90
7206;DHT22;3644;53.480;10.004;2022-07-06T01:58:37;16.70;99.90
7206;DHT22;3644;53.480;10.004;2022-07-06T02:01:10;16.80;99.90
7206;DHT22;3644;53.480;10.004;2022-07-06T02:03:36;16.90;99.90
7206;DHT22;3644;53.480;10.004;2022-07-06T02:06:03;16.80;99.90
7206;DHT22;3644;53.480;10.004;2022-07-06T02:08:29;16.90;99.90
7206;DHT22;3644;53.480;10.004;2022-07-06T02:10:54;17.00;99.90
7206;DHT22;3644;53.480;10.004;2022-07-06T02:13:20;16.90;99.90
7206;DHT22;3644;53.480;10.004;2022-07-06T02:15:45;16.80;99.90
7206;DHT22;3644;53.480;10.004;2022-07-06T02:18:11;16.70;99.90
7206;DHT22;3644;53.480;10.004;2022-07-06T02:20:37;16.90;99.90
7206;DHT22;3644;53.480;10.004;2022-07-06T02:23:02;17.00;99.90
7206;DHT22;3644;53.480;10.004;2022-07-06T02:25:28;16.90;99.90
7206;DHT22;3644;53.480;10.004;2022-07-06T02:27:53;16.80;99.90
7206;DHT22;3644;53.480;10.004;2022-07-06T02:30:19;16.70;99.90
7206;DHT22;3644;53.480;10.004;2022-07-06T02:32:44;16.70;99.90
7206;DHT22;3644;53.480;10.004;2022-07-06T02:35:10;16.60;99.90
7206;DHT22;3644;53.480;10.004;2022-07-06T02:37:35;16.60;99.90
7206;DHT22;3644;53.480;10.004;2022-07-06T02:40:01;16.70;99.90
7206;DHT22;3644;53.480;10.004;2022-07-06T02:42:26;16.60;99.90
7206;DHT22;3644;53.480;10.004;2022-07-06T02:44:53;16.50;99.90
7206;DHT22;3644;53.480;10.004;2022-07-06T02:47:18;16.50;99.90
7206;DHT22;3644;53.480;10.004;2022-07-06T02:49:44;16.60;99.90
7206;DHT22;3644;53.480;10.004;2022-07-06T02:52:09;16.70;99.90
7206;DHT22;3644;53.480;10.004;2022-07-06T02:54:35;16.60;99.90
7206;DHT22;3644;53.480;10.004;2022-07-06T02:57:01;16.60;99.90
7206;DHT22;3644;53.480;10.004;2022-07-06T02:59:26;16.70;99.90
7206;DHT22;3644;53.480;10.004;2022-07-06T03:01:52;16.70;99.90
7206;DHT22;3644;53.480;10.004;2022-07-06T03:04:17;16.70;99.90
7206;DHT22;3644;53.480;10.004;2022-07-06T03:06:43;16.70;99.90
7206;DHT22;3644;53.480;10.004;2022-07-06T03:09:08;16.70;99.90
7206;DHT22;3644;53.480;10.004;2022-07-06T03:11:34;16.70;99.90
7206;DHT22;3644;53.480;10.004;2022-07-06T03:14:03;16.60;99.90
7206;DHT22;3644;53.480;10.004;2022-07-06T03:16:29;16.50;99.90
7206;DHT22;3644;53.480;10.004;2022-07-06T03:18:55;16.50;99.90
7206;DHT22;3644;53.480;10.004;2022-07-06T03:21:20;16.70;99.90
7206;DHT22;3644;53.480;10.004;2022-07-06T03:23:45;16.60;99.90
7206;DHT22;3644;53.480;10.004;2022-07-06T03:26:11;16.60;99.90
7206;DHT22;3644;53.480;10.004;2022-07-06T03:28:36;16.60;99.90
7206;DHT22;3644;53.480;10.004;2022-07-06T03:31:02;16.50;99.90
7206;DHT22;3644;53.480;10.004;2022-07-06T03:33:27;16.70;99.90
7206;DHT22;3644;53.480;10.004;2022-07-06T03:35:53;16.60;99.90
7206;DHT22;3644;53.480;10.004;2022-07-06T03:38:18;16.50;99.90
7206;DHT22;3644;53.480;10.004;2022-07-06T03:40:44;16.40;99.90
7206;DHT22;3644;53.480;10.004;2022-07-06T03:43:09;16.60;99.90
7206;DHT22;3644;53.480;10.004;2022-07-06T03:45:35;16.60;99.90
7206;DHT22;3644;53.480;10.004;2022-07-06T03:48:00;16.60;99.90
7206;DHT22;3644;53.480;10.004;2022-07-06T03:50:26;16.60;99.90
7206;DHT22;3644;53.480;10.004;2022-07-06T03:52:51;16.80;99.90
7206;DHT22;3644;53.480;10.004;2022-07-06T03:55:17;16.80;99.90
7206;DHT22;3644;53.480;10.004;2022-07-06T03:57:42;16.90;99.90
7206;DHT22;3644;53.480;10.004;2022-07-06T04:00:09;16.80;99.90
7206;DHT22;3644;53.480;10.004;2022-07-06T04:02:34;16.80;99.90
7206;DHT22;3644;53.480;10.004;2022-07-06T04:05:00;16.70;99.90
7206;DHT22;3644;53.480;10.004;2022-07-06T04:07:26;16.80;99.90
7206;DHT22;3644;53.480;10.004;2022-07-06T04:09:52;16.80;99.90
7206;DHT22;3644;53.480;10.004;2022-07-06T04:12:17;16.70;99.90
7206;DHT22;3644;53.480;10.004;2022-07-06T04:14:43;16.60;99.90
7206;DHT22;3644;53.480;10.004;2022-07-06T04:17:09;16.60;99.90
7206;DHT22;3644;53.480;10.004;2022-07-06T04:19:53;16.60;99.90
7206;DHT22;3644;53.480;10.004;2022-07-06T04:22:18;16.50;99.90
7206;DHT22;3644;53.480;10.004;2022-07-06T04:24:44;16.50;99.90
7206;DHT22;3644;53.480;10.004;2022-07-06T04:27:09;16.50;99.90
7206;DHT22;3644;53.480;10.004;2022-07-06T04:29:35;16.40;99.90
7206;DHT22;3644;53.480;10.004;2022-07-06T04:32:01;16.40;99.90
7206;DHT22;3644;53.480;10.004;2022-07-06T04:34:26;16.30;99.90
7206;DHT22;3644;53.480;10.004;2022-07-06T04:36:52;16.30;99.90
7206;DHT22;3644;53.480;10.004;2022-07-06T04:39:17;16.30;99.90
7206;DHT22;3644;53.480;10.004;2022-07-06T04:41:43;16.50;99.90
7206;DHT22;3644;53.480;10.004;2022-07-06T04:44:08;16.30;99.90
7206;DHT22;3644;53.480;10.004;2022-07-06T04:46:34;16.40;99.90
7206;DHT22;3644;53.480;10.004;2022-07-06T04:48:59;16.60;99.90
7206;DHT22;3644;53.480;10.004;2022-07-06T04:51:25;16.60;99.90
7206;DHT22;3644;53.480;10.004;2022-07-06T04:53:50;16.70;99.90
7206;DHT22;3644;53.480;10.004;2022-07-06T04:56:16;16.80;99.90
7206;DHT22;3644;53.480;10.004;2022-07-06T04:58:41;16.80;99.90
7206;DHT22;3644;53.480;10.004;2022-07-06T05:01:07;16.70;99.90
7206;DHT22;3644;53.480;10.004;2022-07-06T05:03:33;16.50;99.90
7206;DHT22;3644;53.480;10.004;2022-07-06T05:06:04;16.70;99.90
7206;DHT22;3644;53.480;10.004;2022-07-06T05:08:30;16.90;99.90
7206;DHT22;3644;53.480;10.004;2022-07-06T05:10:55;16.90;99.90
7206;DHT22;3644;53.480;10.004;2022-07-06T05:13:21;16.90;99.90
7206;DHT22;3644;53.480;10.004;2022-07-06T05:15:46;16.80;99.90
7206;DHT22;3644;53.480;10.004;2022-07-06T05:18:12;16.80;99.90
7206;DHT22;3644;53.480;10.004;2022-07-06T05:20:37;16.90;99.90
7206;DHT22;3644;53.480;10.004;2022-07-06T05:23:03;16.90;99.90
7206;DHT22;3644;53.480;10.004;2022-07-06T05:25:28;17.00;99.90
7206;DHT22;3644;53.480;10.004;2022-07-06T05:27:55;16.90;99.90
7206;DHT22;3644;53.480;10.004;2022-07-06T05:30:20;17.00;99.90
7206;DHT22;3644;53.480;10.004;2022-07-06T05:32:46;17.00;99.90
7206;DHT22;3644;53.480;10.004;2022-07-06T05:35:11;17.10;99.90
7206;DHT22;3644;53.480;10.004;2022-07-06T05:37:37;17.30;99.90
7206;DHT22;3644;53.480;10.004;2022-07-06T05:40:03;17.40;99.90
7206;DHT22;3644;53.480;10.004;2022-07-06T05:42:28;17.60;99.90
7206;DHT22;3644;53.480;10.004;2022-07-06T05:44:55;17.50;99.90
7206;DHT22;3644;53.480;10.004;2022-07-06T05:47:21;17.40;99.90
7206;DHT22;3644;53.480;10.004;2022-07-06T05:50:06;17.10;99.90
7206;DHT22;3644;53.480;10.004;2022-07-06T05:52:39;17.20;99.90
7206;DHT22;3644;53.480;10.004;2022-07-06T05:55:05;17.40;99.90
7206;DHT22;3644;53.480;10.004;2022-07-06T05:57:31;17.50;99.90
7206;DHT22;3644;53.480;10.004;2022-07-06T05:59:57;17.70;99.90
7206;DHT22;3644;53.480;10.004;2022-07-06T06:02:22;17.80;99.90
7206;DHT22;3644;53.480;10.004;2022-07-06T06:04:48;17.90;99.90
7206;DHT22;3644;53.480;10.004;2022-07-06T06:07:13;17.90;99.90
7206;DHT22;3644;53.480;10.004;2022-07-06T06:09:39;17.90;99.90
7206;DHT22;3644;53.480;10.004;2022-07-06T06:12:05;17.90;99.90
7206;DHT22;3644;53.480;10.004;2022-07-06T06:14:30;18.10;99.90
7206;DHT22;3644;53.480;10.004;2022-07-06T06:16:56;18.30;99.90
7206;DHT22;3644;53.480;10.004;2022-07-06T06:19:22;18.40;99.90
7206;DHT22;3644;53.480;10.004;2022-07-06T06:21:47;18.30;99.90
7206;DHT22;3644;53.480;10.004;2022-07-06T06:24:13;18.40;99.90
7206;DHT22;3644;53.480;10.004;2022-07-06T06:26:38;18.20;99.90
7206;DHT22;3644;53.480;10.004;2022-07-06T06:29:04;17.90;99.90
7206;DHT22;3644;53.480;10.004;2022-07-06T06:31:29;17.70;99.90
7206;DHT22;3644;53.480;10.004;2022-07-06T06:33:55;17.60;99.90
7206;DHT22;3644;53.480;10.004;2022-07-06T06:36:20;17.40;99.90
7206;DHT22;3644;53.480;10.004;2022-07-06T06:38:46;17.50;99.90
7206;DHT22;3644;53.480;10.004;2022-07-06T06:41:11;17.70;99.90
7206;DHT22;3644;53.480;10.004;2022-07-06T06:43:38;17.70;99.90
7206;DHT22;3644;53.480;10.004;2022-07-06T06:46:03;17.60;99.90
7206;DHT22;3644;53.480;10.004;2022-07-06T06:48:29;17.50;99.90
7206;DHT22;3644;53.480;10.004;2022-07-06T06:50:56;17.50;99.90
7206;DHT22;3644;53.480;10.004;2022-07-06T06:53:22;17.70;99.90
7206;DHT22;3644;53.480;10.004;2022-07-06T06:55:47;17.80;99.90
7206;DHT22;3644;53.480;10.004;2022-07-06T06:58:13;17.90;99.90
7206;DHT22;3644;53.480;10.004;2022-07-06T07:00:38;18.00;99.90
7206;DHT22;3644;53.480;10.004;2022-07-06T07:03:04;18.10;99.90
7206;DHT22;3644;53.480;10.004;2022-07-06T07:05:29;18.00;99.90
7206;DHT22;3644;53.480;10.004;2022-07-06T07:07:55;17.90;99.90
7206;DHT22;3644;53.480;10.004;2022-07-06T07:10:24;17.90;99.90
7206;DHT22;3644;53.480;10.004;2022-07-06T07:12:50;17.90;99.90
7206;DHT22;3644;53.480;10.004;2022-07-06T07:15:16;18.00;99.90
7206;DHT22;3644;53.480;10.004;2022-07-06T07:17:41;18.00;99.90
7206;DHT22;3644;53.480;10.004;2022-07-06T07:20:08;18.30;99.90
7206;DHT22;3644;53.480;10.004;2022-07-06T07:22:33;18.40;99.90
7206;DHT22;3644;53.480;10.004;2022-07-06T07:24:59;18.50;99.90
7206;DHT22;3644;53.480;10.004;2022-07-06T07:27:25;18.80;99.90
7206;DHT22;3644;53.480;10.004;2022-07-06T07:29:51;18.90;99.90
7206;DHT22;3644;53.480;10.004;2022-07-06T07:32:16;19.10;99.90
7206;DHT22;3644;53.480;10.004;2022-07-06T07:34:42;19.50;99.90
7206;DHT22;3644;53.480;10.004;2022-07-06T07:37:08;19.90;99.90
7206;DHT22;3644;53.480;10.004;2022-07-06T07:39:33;19.90;99.90
7206;DHT22;3644;53.480;10.004;2022-07-06T07:41:59;19.70;99.90
7206;DHT22;3644;53.480;10.004;2022-07-06T07:44:24;19.50;99.90
7206;DHT22;3644;53.480;10.004;2022-07-06T07:46:52;19.10;99.90
7206;DHT22;3644;53.480;10.004;2022-07-06T07:49:18;18.90;99.90
7206;DHT22;3644;53.480;10.004;2022-07-06T07:51:44;18.70;99.90
7206;DHT22;3644;53.480;10.004;2022-07-06T07:54:12;18.70;99.90
7206;DHT22;3644;53.480;10.004;2022-07-06T07:56:37;18.60;99.90
7206;DHT22;3644;53.480;10.004;2022-07-06T07:59:06;18.70;99.90
7206;DHT22;3644;53.480;10.004;2022-07-06T08:01:32;18.60;99.90
7206;DHT22;3644;53.480;10.004;2022-07-06T08:03:57;18.50;99.90
7206;DHT22;3644;53.480;10.004;2022-07-06T08:06:23;18.30;99.90
7206;DHT22;3644;53.480;10.004;2022-07-06T08:08:49;18.00;99.90
7206;DHT22;3644;53.480;10.004;2022-07-06T08:11:14;18.10;99.90
7206;DHT22;3644;53.480;10.004;2022-07-06T08:13:40;18.30;99.90
7206;DHT22;3644;53.480;10.004;2022-07-06T08:16:06;18.30;99.90
7206;DHT22;3644;53.480;10.004;2022-07-06T08:18:31;18.20;99.90
7206;DHT22;3644;53.480;10.004;2022-07-06T08:20:57;18.10;99.90
7206;DHT22;3644;53.480;10.004;2022-07-06T08:23:23;18.00;99.90
7206;DHT22;3644;53.480;10.004;2022-07-06T08:25:49;17.80;99.90
7206;DHT22;3644;53.480;10.004;2022-07-06T08:28:14;18.00;99.90
7206;DHT22;3644;53.480;10.004;2022-07-06T08:30:40;18.00;99.90
7206;DHT22;3644;53.480;10.004;2022-07-06T08:33:05;18.00;99.90
7206;DHT22;3644;53.480;10.004;2022-07-06T08:35:31;17.80;99.90
7206;DHT22;3644;53.480;10.004;2022-07-06T08:37:57;17.40;99.90
7206;DHT22;3644;53.480;10.004;2022-07-06T08:40:22;17.10;99.90
7206;DHT22;3644;53.480;10.004;2022-07-06T08:42:53;17.00;99.90
7206;DHT22;3644;53.480;10.004;2022-07-06T08:45:19;16.90;99.90
7206;DHT22;3644;53.480;10.004;2022-07-06T08:47:46;17.10;99.90
7206;DHT22;3644;53.480;10.004;2022-07-06T08:50:14;17.30;99.90
7206;DHT22;3644;53.480;10.004;2022-07-06T08:52:41;17.20;99.90
7206;DHT22;3644;53.480;10.004;2022-07-06T08:55:08;17.30;99.90
7206;DHT22;3644;53.480;10.004;2022-07-06T08:57:34;17.30;99.90
7206;DHT22;3644;53.480;10.004;2022-07-06T09:00:00;17.30;99.90
7206;DHT22;3644;53.480;10.004;2022-07-06T09:02:27;17.60;99.90
7206;DHT22;3644;53.480;10.004;2022-07-06T09:04:55;17.90;99.90
7206;DHT22;3644;53.480;10.004;2022-07-06T09:07:27;18.20;99.90
7206;DHT22;3644;53.480;10.004;2022-07-06T09:09:55;18.30;99.90
7206;DHT22;3644;53.480;10.004;2022-07-06T09:12:21;18.30;99.90
7206;DHT22;3644;53.480;10.004;2022-07-06T09:14:47;18.30;99.90
7206;DHT22;3644;53.480;10.004;2022-07-06T09:17:12;18.40;99.90
7206;DHT22;3644;53.480;10.004;2022-07-06T09:19:38;18.50;99.90
7206;DHT22;3644;53.480;10.004;2022-07-06T09:22:05;18.70;99.90
7206;DHT22;3644;53.480;10.004;2022-07-06T09:24:30;19.50;99.90
7206;DHT22;3644;53.480;10.004;2022-07-06T09:26:58;18.90;99.90
7206;DHT22;3644;53.480;10.004;2022-07-06T09:29:31;19.10;99.90
7206;DHT22;3644;53.480;10.004;2022-07-06T09:31:58;19.10;99.90
7206;DHT22;3644;53.480;10.004;2022-07-06T09:34:24;19.10;99.90
7206;DHT22;3644;53.480;10.004;2022-07-06T09:36:50;19.30;99.90
7206;DHT22;3644;53.480;10.004;2022-07-06T09:39:27;19.40;99.90
7206;DHT22;3644;53.480;10.004;2022-07-06T09:44:24;19.10;99.90
7206;DHT22;3644;53.480;10.004;2022-07-06T09:46:50;19.20;99.90
7206;DHT22;3644;53.480;10.004;2022-07-06T09:49:17;19.20;99.90
7206;DHT22;3644;53.480;10.004;2022-07-06T09:51:44;19.50;99.90
7206;DHT22;3644;53.480;10.004;2022-07-06T09:54:11;19.50;99.90
7206;DHT22;3644;53.480;10.004;2022-07-06T09:56:38;19.80;99.90
7206;DHT22;3644;53.480;10.004;2022-07-06T09:59:11;20.00;99.90
7206;DHT22;3644;53.480;10.004;2022-07-06T10:01:40;20.00;99.90
7206;DHT22;3644;53.480;10.004;2022-07-06T10:04:10;20.10;99.90
7206;DHT22;3644;53.480;10.004;2022-07-06T10:06:38;19.90;99.90
7206;DHT22;3644;53.480;10.004;2022-07-06T10:09:06;19.80;99.90
7206;DHT22;3644;53.480;10.004;2022-07-06T10:11:34;20.00;99.90
7206;DHT22;3644;53.480;10.004;2022-07-06T10:14:03;20.00;99.90
7206;DHT22;3644;53.480;10.004;2022-07-06T10:16:30;20.10;99.90
7206;DHT22;3644;53.480;10.004;2022-07-06T10:18:56;20.30;99.90
7206;DHT22;3644;53.480;10.004;2022-07-06T10:21:23;20.10;99.90
7206;DHT22;3644;53.480;10.004;2022-07-06T10:23:49;20.30;99.90
7206;DHT22;3644;53.480;10.004;2022-07-06T10:26:16;20.60;99.90
7206;DHT22;3644;53.480;10.004;2022-07-06T10:28:42;20.60;99.90
7206;DHT22;3644;53.480;10.004;2022-07-06T10:31:09;20.40;99.90
7206;DHT22;3644;53.480;10.004;2022-07-06T10:33:35;20.60;99.90
7206;DHT22;3644;53.480;10.004;2022-07-06T10:36:03;20.50;99.90
7206;DHT22;3644;53.480;10.004;2022-07-06T10:38:33;20.30;99.90
7206;DHT22;3644;53.480;10.004;2022-07-06T10:41:07;20.20;99.90
7206;DHT22;3644;53.480;10.004;2022-07-06T10:43:38;20.10;99.90
7206;DHT22;3644;53.480;10.004;2022-07-06T10:46:14;20.00;99.90
7206;DHT22;3644;53.480;10.004;2022-07-06T10:48:42;20.00;99.90
7206;DHT22;3644;53.480;10.004;2022-07-06T10:51:08;19.90;99.90
7206;DHT22;3644;53.480;10.004;2022-07-06T10:53:37;19.80;99.90
7206;DHT22;3644;53.480;10.004;2022-07-06T10:56:08;19.30;99.90
7206;DHT22;3644;53.480;10.004;2022-07-06T10:58:36;19.30;99.90
7206;DHT22;3644;53.480;10.004;2022-07-06T11:01:03;19.30;99.90
7206;DHT22;3644;53.480;10.004;2022-07-06T11:03:43;19.30;99.90
7206;DHT22;3644;53.480;10.004;2022-07-06T11:08:43;19.00;99.90
7206;DHT22;3644;53.480;10.004;2022-07-06T11:11:12;18.50;99.90
7206;DHT22;3644;53.480;10.004;2022-07-06T11:13:53;18.30;99.90
7206;DHT22;3644;53.480;10.004;2022-07-06T11:16:21;18.40;99.90
7206;DHT22;3644;53.480;10.004;2022-07-06T11:19:03;18.40;99.90
7206;DHT22;3644;53.480;10.004;2022-07-06T11:24:05;18.90;99.90
7206;DHT22;3644;53.480;10.004;2022-07-06T11:26:31;19.00;99.90
7206;DHT22;3644;53.480;10.004;2022-07-06T11:28:58;19.10;99.90
7206;DHT22;3644;53.480;10.004;2022-07-06T11:31:25;19.30;99.90
7206;DHT22;3644;53.480;10.004;2022-07-06T11:33:51;19.50;99.90
7206;DHT22;3644;53.480;10.004;2022-07-06T11:36:18;19.70;99.90
7206;DHT22;3644;53.480;10.004;2022-07-06T11:38:46;19.80;99.90
7206;DHT22;3644;53.480;10.004;2022-07-06T11:41:12;20.00;99.90
7206;DHT22;3644;53.480;10.004;2022-07-06T11:43:40;20.20;99.90
7206;DHT22;3644;53.480;10.004;2022-07-06T11:46:26;20.10;99.90
7206;DHT22;3644;53.480;10.004;2022-07-06T11:49:00;20.30;99.90
7206;DHT22;3644;53.480;10.004;2022-07-06T11:51:28;20.60;99.90
7206;DHT22;3644;53.480;10.004;2022-07-06T11:53:57;20.70;99.90
7206;DHT22;3644;53.480;10.004;2022-07-06T11:56:24;20.50;99.90
7206;DHT22;3644;53.480;10.004;2022-07-06T11:58:54;20.40;99.90
7206;DHT22;3644;53.480;10.004;2022-07-06T12:01:22;20.20;99.90
7206;DHT22;3644;53.480;10.004;2022-07-06T12:03:52;20.10;99.90
7206;DHT22;3644;53.480;10.004;2022-07-06T12:06:23;20.40;99.90
7206;DHT22;3644;53.480;10.004;2022-07-06T12:09:06;20.40;99.90
7206;DHT22;3644;53.480;10.004;2022-07-06T12:11:34;20.20;99.90
7206;DHT22;3644;53.480;10.004;2022-07-06T12:14:17;20.30;99.90
7206;DHT22;3644;53.480;10.004;2022-07-06T12:16:44;20.50;99.90
7206;DHT22;3644;53.480;10.004;2022-07-06T12:19:09;20.70;99.90
7206;DHT22;3644;53.480;10.004;2022-07-06T12:21:46;21.10;99.90
7206;DHT22;3644;53.480;10.004;2022-07-06T12:24:21;21.10;99.90
7206;DHT22;3644;53.480;10.004;2022-07-06T12:26:47;21.10;99.90
7206;DHT22;3644;53.480;10.004;2022-07-06T12:29:13;21.10;99.90
7206;DHT22;3644;53.480;10.004;2022-07-06T12:31:41;20.90;99.90
7206;DHT22;3644;53.480;10.004;2022-07-06T12:34:18;21.00;99.90
7206;DHT22;3644;53.480;10.004;2022-07-06T12:36:49;21.20;99.90
7206;DHT22;3644;53.480;10.004;2022-07-06T12:39:18;21.40;99.90
7206;DHT22;3644;53.480;10.004;2022-07-06T12:41:52;21.50;99.90
7206;DHT22;3644;53.480;10.004;2022-07-06T12:44:23;21.60;99.90
7206;DHT22;3644;53.480;10.004;2022-07-06T12:46:50;21.60;99.90
7206;DHT22;3644;53.480;10.004;2022-07-06T12:49:20;21.80;99.90
7206;DHT22;3644;53.480;10.004;2022-07-06T12:54:17;22.30;99.90
7206;DHT22;3644;53.480;10.004;2022-07-06T12:57:09;22.50;99.90
7206;DHT22;3644;53.480;10.004;2022-07-06T12:59:40;22.80;99.90
7206;DHT22;3644;53.480;10.004;2022-07-06T13:02:08;22.80;99.90
7206;DHT22;3644;53.480;10.004;2022-07-06T13:04:36;22.70;99.90
7206;DHT22;3644;53.480;10.004;2022-07-06T13:07:02;22.10;99.90
7206;DHT22;3644;53.480;10.004;2022-07-06T13:09:29;22.00;99.90
7206;DHT22;3644;53.480;10.004;2022-07-06T13:11:55;22.00;99.90
7206;DHT22;3644;53.480;10.004;2022-07-06T13:14:21;21.50;99.90
7206;DHT22;3644;53.480;10.004;2022-07-06T13:16:47;21.40;99.90
7206;DHT22;3644;53.480;10.004;2022-07-06T13:19:13;21.60;99.90
7206;DHT22;3644;53.480;10.004;2022-07-06T13:21:39;21.70;99.90
7206;DHT22;3644;53.480;10.004;2022-07-06T13:24:05;21.50;99.90
7206;DHT22;3644;53.480;10.004;2022-07-06T13:26:31;21.30;99.90
7206;DHT22;3644;53.480;10.004;2022-07-06T13:28:59;21.10;99.90
7206;DHT22;3644;53.480;10.004;2022-07-06T13:31:26;21.00;99.90
7206;DHT22;3644;53.480;10.004;2022-07-06T13:33:51;21.00;99.90
7206;DHT22;3644;53.480;10.004;2022-07-06T13:36:17;21.40;99.90
7206;DHT22;3644;53.480;10.004;2022-07-06T13:38:42;21.70;99.90
7206;DHT22;3644;53.480;10.004;2022-07-06T13:41:08;21.50;99.90
7206;DHT22;3644;53.480;10.004;2022-07-06T13:43:34;21.30;99.90
7206;DHT22;3644;53.480;10.004;2022-07-06T13:46:06;21.30;99.90
7206;DHT22;3644;53.480;10.004;2022-07-06T13:48:32;21.20;99.90
7206;DHT22;3644;53.480;10.004;2022-07-06T13:50:58;21.30;99.90
7206;DHT22;3644;53.480;10.004;2022-07-06T13:53:24;21.40;99.90
7206;DHT22;3644;53.480;10.004;2022-07-06T13:55:50;21.40;99.90
7206;DHT22;3644;53.480;10.004;2022-07-06T13:58:16;21.30;99.90
7206;DHT22;3644;53.480;10.004;2022-07-06T14:00:41;21.50;99.90
7206;DHT22;3644;53.480;10.004;2022-07-06T14:03:07;21.70;99.90
7206;DHT22;3644;53.480;10.004;2022-07-06T14:05:33;21.90;99.90
7206;DHT22;3644;53.480;10.004;2022-07-06T14:07:59;22.00;99.90
7206;DHT22;3644;53.480;10.004;2022-07-06T14:10:25;22.30;99.90
7206;DHT22;3644;53.480;10.004;2022-07-06T14:12:50;22.50;99.90
7206;DHT22;3644;53.480;10.004;2022-07-06T14:15:16;22.60;99.90
7206;DHT22;3644;53.480;10.004;2022-07-06T14:17:41;22.60;99.90
7206;DHT22;3644;53.480;10.004;2022-07-06T14:20:07;22.50;99.90
7206;DHT22;3644;53.480;10.004;2022-07-06T14:22:33;22.50;99.90
7206;DHT22;3644;53.480;10.004;2022-07-06T14:24:59;22.70;99.90
7206;DHT22;3644;53.480;10.004;2022-07-06T14:27:24;23.00;99.90
7206;DHT22;3644;53.480;10.004;2022-07-06T14:29:50;23.30;99.90
7206;DHT22;3644;53.480;10.004;2022-07-06T14:32:16;23.50;99.90
7206;DHT22;3644;53.480;10.004;2022-07-06T14:34:41;23.10;99.90
7206;DHT22;3644;53.480;10.004;2022-07-06T14:37:07;22.80;99.90
7206;DHT22;3644;53.480;10.004;2022-07-06T14:39:33;22.90;99.90
7206;DHT22;3644;53.480;10.004;2022-07-06T14:41:58;22.80;99.90
7206;DHT22;3644;53.480;10.004;2022-07-06T14:44:24;22.50;99.90
7206;DHT22;3644;53.480;10.004;2022-07-06T14:46:49;22.50;99.90
7206;DHT22;3644;53.480;10.004;2022-07-06T14:49:15;22.20;99.90
7206;DHT22;3644;53.480;10.004;2022-07-06T14:51:40;22.20;99.90
7206;DHT22;3644;53.480;10.004;2022-07-06T14:54:06;22.30;99.90
7206;DHT22;3644;53.480;10.004;2022-07-06T14:56:31;22.50;99.90
7206;DHT22;3644;53.480;10.004;2022-07-06T14:58:57;22.30;99.90
7206;DHT22;3644;53.480;10.004;2022-07-06T15:01:22;22.30;99.90
7206;DHT22;3644;53.480;10.004;2022-07-06T15:03:48;22.60;99.90
7206;DHT22;3644;53.480;10.004;2022-07-06T15:06:13;22.90;99.90
7206;DHT22;3644;53.480;10.004;2022-07-06T15:08:39;23.20;99.90
7206;DHT22;3644;53.480;10.004;2022-07-06T15:11:05;23.60;99.90
7206;DHT22;3644;53.480;10.004;2022-07-06T15:13:31;23.40;99.90
7206;DHT22;3644;53.480;10.004;2022-07-06T15:15:56;23.40;99.90
7206;DHT22;3644;53.480;10.004;2022-07-06T15:18:22;23.60;99.90
7206;DHT22;3644;53.480;10.004;2022-07-06T15:20:47;23.50;99.90
7206;DHT22;3644;53.480;10.004;2022-07-06T15:23:13;23.20;99.90
7206;DHT22;3644;53.480;10.004;2022-07-06T15:25:38;22.80;99.90
7206;DHT22;3644;53.480;10.004;2022-07-06T15:28:04;22.40;99.90
7206;DHT22;3644;53.480;10.004;2022-07-06T15:30:29;22.40;99.90
7206;DHT22;3644;53.480;10.004;2022-07-06T15:32:58;22.40;99.90
7206;DHT22;3644;53.480;10.004;2022-07-06T15:35:23;22.40;99.90
7206;DHT22;3644;53.480;10.004;2022-07-06T15:37:49;22.30;99.90
7206;DHT22;3644;53.480;10.004;2022-07-06T15:40:14;22.30;99.90
7206;DHT22;3644;53.480;10.004;2022-07-06T15:42:42;22.30;99.90
7206;DHT22;3644;53.480;10.004;2022-07-06T15:45:08;22.20;99.90
7206;DHT22;3644;53.480;10.004;2022-07-06T15:47:34;22.10;99.90
7206;DHT22;3644;53.480;10.004;2022-07-06T15:49:59;21.80;99.90
7206;DHT22;3644;53.480;10.004;2022-07-06T15:52:25;21.90;99.90
7206;DHT22;3644;53.480;10.004;2022-07-06T15:54:51;22.10;99.90